SBSL/SLZ METAR and TAF weather

Enter ICAO airport designator
Station Type Date Time Source
SBSL METAR 2020/08/12 17:00 UTC NOAA

SBSL 121700Z 12003KT 9999 SCT025 32/21 Q1009


Station Type Date Time Source
SBSL Decoded METAR 2020/08/12 17:00 UTC NOAA

Sao Luiz Aeroporto , Brazil (SBSL) 02-36S 044-14W 53M
Aug 12, 2020 - 01:00 PM EDT / 2020.08.12 1700 UTC
Wind: from the ESE (120 degrees) at 3 MPH (3 KT):0
Visibility: greater than 7 mile(s):0
Sky conditions: partly cloudy
Temperature: 89 F (32 C)
Dew Point: 69 F (21 C)
Relative Humidity: 52%
Pressure (altimeter): 29.80 in. Hg (1009 hPa)
ob: SBSL 121700Z 12003KT 9999 SCT025 32/21 Q1009
cycle: 17

Station Type Date Time Source
SBSL TAF 2020/08/12 18:48 UTC NOAA

TAF SBSL 121500Z 1218/1318 05009KT 9999 FEW020 TX31/1218Z TN25/1309Z
BECMG 1223/1301 CAVOK
BECMG 1309/1311 07009KT 9999 FEW016
BECMG 1312/1314 09009KT SCT020
BECMG 1315/1317 05009KT
RMK PDL

Example: see airport list